sensor_id;sensor_type;location;lat;lon;timestamp;pressure;altitude;pressure_sealevel;temperature;humidity
29815;BME280;16708;50.426;7.664;2022-12-18T00:01:03;999.32;;;-10.16;100.00
29815;BME280;16708;50.426;7.664;2022-12-18T00:05:53;999.37;;;-10.14;100.00
29815;BME280;16708;50.426;7.664;2022-12-18T00:10:46;999.34;;;-10.22;100.00
29815;BME280;16708;50.426;7.664;2022-12-18T00:15:38;999.51;;;-10.12;100.00
29815;BME280;16708;50.426;7.664;2022-12-18T00:20:33;999.45;;;-10.24;100.00
29815;BME280;16708;50.426;7.664;2022-12-18T00:25:27;999.34;;;-10.24;100.00
29815;BME280;16708;50.426;7.664;2022-12-18T00:30:21;999.34;;;-10.28;100.00
29815;BME280;16708;50.426;7.664;2022-12-18T00:35:15;999.32;;;-10.29;100.00
29815;BME280;16708;50.426;7.664;2022-12-18T00:40:09;999.35;;;-10.30;100.00
29815;BME280;16708;50.426;7.664;2022-12-18T00:45:01;999.30;;;-10.35;100.00
29815;BME280;16708;50.426;7.664;2022-12-18T00:49:56;999.36;;;-10.37;100.00
29815;BME280;16708;50.426;7.664;2022-12-18T00:54:50;999.41;;;-10.42;100.00
29815;BME280;16708;50.426;7.664;2022-12-18T00:59:44;999.30;;;-10.41;100.00
29815;BME280;16708;50.426;7.664;2022-12-18T01:04:38;999.44;;;-10.41;100.00
29815;BME280;16708;50.426;7.664;2022-12-18T01:09:32;999.49;;;-10.47;100.00
29815;BME280;16708;50.426;7.664;2022-12-18T01:14:27;999.43;;;-10.48;100.00
29815;BME280;16708;50.426;7.664;2022-12-18T01:19:21;999.42;;;-10.57;100.00
29815;BME280;16708;50.426;7.664;2022-12-18T01:24:13;999.36;;;-10.65;100.00
29815;BME280;16708;50.426;7.664;2022-12-18T01:29:08;999.37;;;-10.70;100.00
29815;BME280;16708;50.426;7.664;2022-12-18T01:34:02;999.30;;;-10.72;100.00
29815;BME280;16708;50.426;7.664;2022-12-18T01:38:56;999.33;;;-10.83;100.00
29815;BME280;16708;50.426;7.664;2022-12-18T01:43:51;999.36;;;-10.83;100.00
29815;BME280;16708;50.426;7.664;2022-12-18T01:48:44;999.52;;;-10.65;100.00
29815;BME280;16708;50.426;7.664;2022-12-18T01:53:38;999.50;;;-10.78;100.00
29815;BME280;16708;50.426;7.664;2022-12-18T01:58:33;999.39;;;-10.83;100.00
29815;BME280;16708;50.426;7.664;2022-12-18T02:03:27;999.30;;;-10.84;100.00
29815;BME280;16708;50.426;7.664;2022-12-18T02:08:21;999.42;;;-10.59;100.00
29815;BME280;16708;50.426;7.664;2022-12-18T02:13:15;999.51;;;-10.80;100.00
29815;BME280;16708;50.426;7.664;2022-12-18T02:18:09;999.34;;;-10.99;100.00
29815;BME280;16708;50.426;7.664;2022-12-18T02:23:03;999.26;;;-10.98;100.00
29815;BME280;16708;50.426;7.664;2022-12-18T02:27:58;999.29;;;-10.95;100.00
29815;BME280;16708;50.426;7.664;2022-12-18T02:32:52;999.20;;;-10.82;100.00
29815;BME280;16708;50.426;7.664;2022-12-18T02:37:46;999.25;;;-10.78;100.00
29815;BME280;16708;50.426;7.664;2022-12-18T02:42:38;999.27;;;-10.83;100.00
29815;BME280;16708;50.426;7.664;2022-12-18T02:47:32;999.11;;;-10.80;100.00
29815;BME280;16708;50.426;7.664;2022-12-18T02:57:21;999.21;;;-10.61;100.00
29815;BME280;16708;50.426;7.664;2022-12-18T03:02:15;999.21;;;-10.68;100.00
29815;BME280;16708;50.426;7.664;2022-12-18T03:07:09;999.13;;;-10.65;100.00
29815;BME280;16708;50.426;7.664;2022-12-18T03:12:03;999.12;;;-10.82;100.00
29815;BME280;16708;50.426;7.664;2022-12-18T03:16:57;999.07;;;-10.74;100.00
29815;BME280;16708;50.426;7.664;2022-12-18T03:21:51;999.07;;;-10.66;100.00
29815;BME280;16708;50.426;7.664;2022-12-18T03:26:43;999.16;;;-10.68;100.00
29815;BME280;16708;50.426;7.664;2022-12-18T03:31:37;999.11;;;-10.58;100.00
29815;BME280;16708;50.426;7.664;2022-12-18T03:36:29;999.11;;;-10.59;100.00
29815;BME280;16708;50.426;7.664;2022-12-18T03:41:24;999.11;;;-10.56;100.00
29815;BME280;16708;50.426;7.664;2022-12-18T03:46:18;999.10;;;-10.64;100.00
29815;BME280;16708;50.426;7.664;2022-12-18T03:51:10;999.01;;;-10.61;100.00
29815;BME280;16708;50.426;7.664;2022-12-18T03:56:04;999.04;;;-10.66;100.00
29815;BME280;16708;50.426;7.664;2022-12-18T04:00:58;998.89;;;-10.78;100.00
29815;BME280;16708;50.426;7.664;2022-12-18T04:05:53;998.78;;;-10.65;100.00
29815;BME280;16708;50.426;7.664;2022-12-18T04:10:45;998.76;;;-10.71;100.00
29815;BME280;16708;50.426;7.664;2022-12-18T04:15:39;998.73;;;-10.68;100.00
29815;BME280;16708;50.426;7.664;2022-12-18T04:20:33;998.68;;;-10.74;100.00
29815;BME280;16708;50.426;7.664;2022-12-18T04:25:28;998.81;;;-10.66;100.00
29815;BME280;16708;50.426;7.664;2022-12-18T04:30:22;998.88;;;-10.68;100.00
29815;BME280;16708;50.426;7.664;2022-12-18T04:35:15;998.93;;;-10.68;100.00
29815;BME280;16708;50.426;7.664;2022-12-18T04:40:08;998.87;;;-10.82;100.00
29815;BME280;16708;50.426;7.664;2022-12-18T04:45:03;998.77;;;-10.97;100.00
29815;BME280;16708;50.426;7.664;2022-12-18T04:49:57;998.81;;;-10.79;100.00
29815;BME280;16708;50.426;7.664;2022-12-18T04:54:51;998.84;;;-10.78;100.00
29815;BME280;16708;50.426;7.664;2022-12-18T04:59:45;998.72;;;-10.82;100.00
29815;BME280;16708;50.426;7.664;2022-12-18T05:04:37;998.87;;;-10.82;100.00
29815;BME280;16708;50.426;7.664;2022-12-18T05:09:31;998.78;;;-10.65;100.00
29815;BME280;16708;50.426;7.664;2022-12-18T05:14:26;998.75;;;-10.70;100.00
29815;BME280;16708;50.426;7.664;2022-12-18T05:19:20;998.71;;;-10.59;100.00
29815;BME280;16708;50.426;7.664;2022-12-18T05:24:14;998.58;;;-10.40;100.00
29815;BME280;16708;50.426;7.664;2022-12-18T05:29:12;998.70;;;-10.28;100.00
29815;BME280;16708;50.426;7.664;2022-12-18T05:34:02;998.70;;;-10.20;100.00
29815;BME280;16708;50.426;7.664;2022-12-18T05:38:57;998.55;;;-10.39;100.00
29815;BME280;16708;50.426;7.664;2022-12-18T05:43:51;998.54;;;-10.15;100.00
29815;BME280;16708;50.426;7.664;2022-12-18T05:48:45;998.48;;;-10.01;100.00
29815;BME280;16708;50.426;7.664;2022-12-18T05:53:41;998.64;;;-9.90;100.00
29815;BME280;16708;50.426;7.664;2022-12-18T05:58:32;998.60;;;-9.88;100.00
29815;BME280;16708;50.426;7.664;2022-12-18T06:03:27;998.76;;;-10.03;100.00
29815;BME280;16708;50.426;7.664;2022-12-18T06:08:19;998.69;;;-9.35;100.00
29815;BME280;16708;50.426;7.664;2022-12-18T06:13:13;998.71;;;-9.33;100.00
29815;BME280;16708;50.426;7.664;2022-12-18T06:18:05;998.77;;;-9.34;100.00
29815;BME280;16708;50.426;7.664;2022-12-18T06:22:59;998.89;;;-9.38;100.00
29815;BME280;16708;50.426;7.664;2022-12-18T06:27:54;999.00;;;-9.46;100.00
29815;BME280;16708;50.426;7.664;2022-12-18T06:32:47;999.06;;;-9.59;100.00
29815;BME280;16708;50.426;7.664;2022-12-18T06:37:39;999.00;;;-9.59;100.00
29815;BME280;16708;50.426;7.664;2022-12-18T06:42:34;999.05;;;-9.84;100.00
29815;BME280;16708;50.426;7.664;2022-12-18T06:47:28;999.13;;;-9.96;100.00
29815;BME280;16708;50.426;7.664;2022-12-18T06:52:22;999.19;;;-10.07;100.00
29815;BME280;16708;50.426;7.664;2022-12-18T06:57:17;999.17;;;-10.22;100.00
29815;BME280;16708;50.426;7.664;2022-12-18T07:02:10;999.14;;;-10.21;100.00
29815;BME280;16708;50.426;7.664;2022-12-18T07:07:04;999.03;;;-10.22;100.00
29815;BME280;16708;50.426;7.664;2022-12-18T07:11:59;999.02;;;-10.29;100.00
29815;BME280;16708;50.426;7.664;2022-12-18T07:16:51;998.85;;;-10.51;100.00
29815;BME280;16708;50.426;7.664;2022-12-18T07:21:45;998.87;;;-10.50;100.00
29815;BME280;16708;50.426;7.664;2022-12-18T07:26:39;998.88;;;-10.35;100.00
29815;BME280;16708;50.426;7.664;2022-12-18T07:31:33;999.04;;;-10.52;100.00
29815;BME280;16708;50.426;7.664;2022-12-18T07:36:27;999.14;;;-10.47;100.00
29815;BME280;16708;50.426;7.664;2022-12-18T07:41:21;999.27;;;-10.56;100.00
29815;BME280;16708;50.426;7.664;2022-12-18T07:46:18;999.26;;;-10.42;100.00
29815;BME280;16708;50.426;7.664;2022-12-18T07:51:08;999.30;;;-10.42;100.00
29815;BME280;16708;50.426;7.664;2022-12-18T07:56:00;999.21;;;-10.09;100.00
29815;BME280;16708;50.426;7.664;2022-12-18T08:00:55;999.06;;;-9.37;100.00
29815;BME280;16708;50.426;7.664;2022-12-18T08:05:49;999.13;;;-9.33;100.00
29815;BME280;16708;50.426;7.664;2022-12-18T08:10:43;999.19;;;-9.19;100.00
29815;BME280;16708;50.426;7.664;2022-12-18T08:15:38;999.19;;;-9.22;100.00
29815;BME280;16708;50.426;7.664;2022-12-18T08:20:32;999.18;;;-9.60;100.00
29815;BME280;16708;50.426;7.664;2022-12-18T08:25:27;998.93;;;-9.10;100.00
29815;BME280;16708;50.426;7.664;2022-12-18T08:30:21;998.76;;;-8.89;100.00
29815;BME280;16708;50.426;7.664;2022-12-18T08:35:16;998.62;;;-8.39;100.00
29815;BME280;16708;50.426;7.664;2022-12-18T08:40:10;998.58;;;-8.49;100.00
29815;BME280;16708;50.426;7.664;2022-12-18T08:45:04;998.60;;;-8.03;100.00
29815;BME280;16708;50.426;7.664;2022-12-18T08:49:58;998.81;;;-8.14;100.00
29815;BME280;16708;50.426;7.664;2022-12-18T08:54:51;999.01;;;-7.82;100.00
29815;BME280;16708;50.426;7.664;2022-12-18T08:59:46;998.98;;;-7.25;100.00
29815;BME280;16708;50.426;7.664;2022-12-18T09:04:41;998.94;;;-5.59;100.00
29815;BME280;16708;50.426;7.664;2022-12-18T09:09:36;998.88;;;-2.57;99.48
29815;BME280;16708;50.426;7.664;2022-12-18T09:14:32;998.90;;;-1.19;70.89
29815;BME280;16708;50.426;7.664;2022-12-18T09:19:27;998.83;;;-0.40;64.34
29815;BME280;16708;50.426;7.664;2022-12-18T09:29:17;998.85;;;-0.91;71.42
29815;BME280;16708;50.426;7.664;2022-12-18T09:34:12;998.89;;;-3.49;84.18
29815;BME280;16708;50.426;7.664;2022-12-18T09:39:05;999.03;;;-3.75;100.00
29815;BME280;16708;50.426;7.664;2022-12-18T09:43:58;998.98;;;-2.89;100.00
29815;BME280;16708;50.426;7.664;2022-12-18T09:48:53;998.85;;;0.38;76.08
29815;BME280;16708;50.426;7.664;2022-12-18T09:53:48;998.71;;;0.92;72.66
29815;BME280;16708;50.426;7.664;2022-12-18T09:58:42;998.64;;;1.64;64.73
29815;BME280;16708;50.426;7.664;2022-12-18T10:03:34;998.54;;;0.97;77.07
29815;BME280;16708;50.426;7.664;2022-12-18T10:08:29;998.61;;;1.49;68.34
29815;BME280;16708;50.426;7.664;2022-12-18T10:13:23;998.65;;;1.05;80.97
29815;BME280;16708;50.426;7.664;2022-12-18T10:18:17;998.62;;;-0.02;83.07
29815;BME280;16708;50.426;7.664;2022-12-18T10:23:11;998.53;;;0.38;80.09
29815;BME280;16708;50.426;7.664;2022-12-18T10:28:05;998.38;;;-0.27;83.37
29815;BME280;16708;50.426;7.664;2022-12-18T10:32:59;998.36;;;0.24;100.00
29815;BME280;16708;50.426;7.664;2022-12-18T10:42:46;998.27;;;2.71;64.86
29815;BME280;16708;50.426;7.664;2022-12-18T10:47:41;998.36;;;3.72;62.40
29815;BME280;16708;50.426;7.664;2022-12-18T10:52:36;998.36;;;3.46;58.49
29815;BME280;16708;50.426;7.664;2022-12-18T11:02:25;998.24;;;2.03;65.10
29815;BME280;16708;50.426;7.664;2022-12-18T11:07:19;998.16;;;2.90;64.17
29815;BME280;16708;50.426;7.664;2022-12-18T11:17:06;998.17;;;2.82;59.59
29815;BME280;16708;50.426;7.664;2022-12-18T11:36:44;998.31;;;0.71;82.14
29815;BME280;16708;50.426;7.664;2022-12-18T11:41:38;998.38;;;-0.16;84.38
29815;BME280;16708;50.426;7.664;2022-12-18T11:46:32;998.27;;;-0.57;94.51
29815;BME280;16708;50.426;7.664;2022-12-18T11:51:26;998.06;;;0.02;93.26
29815;BME280;16708;50.426;7.664;2022-12-18T12:10:59;998.07;;;-0.12;95.24
29815;BME280;16708;50.426;7.664;2022-12-18T12:15:53;997.96;;;-0.32;99.98
29815;BME280;16708;50.426;7.664;2022-12-18T12:25:41;998.08;;;-1.09;100.00
29815;BME280;16708;50.426;7.664;2022-12-18T12:35:29;998.16;;;-1.76;100.00
29815;BME280;16708;50.426;7.664;2022-12-18T12:40:23;998.09;;;-1.54;100.00
29815;BME280;16708;50.426;7.664;2022-12-18T12:45:13;997.95;;;-1.97;100.00
29815;BME280;16708;50.426;7.664;2022-12-18T12:50:06;997.73;;;-1.94;100.00
29815;BME280;16708;50.426;7.664;2022-12-18T12:55:01;997.66;;;-1.55;100.00
29815;BME280;16708;50.426;7.664;2022-12-18T12:59:55;997.69;;;-1.29;100.00
29815;BME280;16708;50.426;7.664;2022-12-18T13:04:49;997.52;;;-1.31;100.00
29815;BME280;16708;50.426;7.664;2022-12-18T13:19:27;997.38;;;-1.49;100.00
29815;BME280;16708;50.426;7.664;2022-12-18T13:24:21;997.30;;;-1.99;100.00
29815;BME280;16708;50.426;7.664;2022-12-18T13:29:15;997.36;;;-1.83;100.00
29815;BME280;16708;50.426;7.664;2022-12-18T13:39:04;997.14;;;-2.07;100.00
29815;BME280;16708;50.426;7.664;2022-12-18T13:43:58;997.16;;;-2.27;100.00
29815;BME280;16708;50.426;7.664;2022-12-18T13:48:52;997.29;;;-2.67;100.00
29815;BME280;16708;50.426;7.664;2022-12-18T13:53:44;997.26;;;-2.50;100.00
29815;BME280;16708;50.426;7.664;2022-12-18T14:03:33;997.23;;;-2.56;100.00
29815;BME280;16708;50.426;7.664;2022-12-18T14:08:27;997.32;;;-2.35;100.00
29815;BME280;16708;50.426;7.664;2022-12-18T14:18:13;997.34;;;-2.76;100.00
29815;BME280;16708;50.426;7.664;2022-12-18T14:23:06;997.45;;;-2.88;100.00
29815;BME280;16708;50.426;7.664;2022-12-18T14:28:00;997.33;;;-2.99;100.00
29815;BME280;16708;50.426;7.664;2022-12-18T14:37:48;997.19;;;-2.86;100.00
29815;BME280;16708;50.426;7.664;2022-12-18T14:47:36;997.14;;;-3.06;100.00
29815;BME280;16708;50.426;7.664;2022-12-18T14:52:31;997.02;;;-3.33;100.00
29815;BME280;16708;50.426;7.664;2022-12-18T14:57:25;997.00;;;-3.36;100.00
29815;BME280;16708;50.426;7.664;2022-12-18T15:02:18;996.93;;;-3.24;100.00
29815;BME280;16708;50.426;7.664;2022-12-18T15:07:10;996.94;;;-3.33;100.00
29815;BME280;16708;50.426;7.664;2022-12-18T15:12:04;997.02;;;-3.40;100.00
29815;BME280;16708;50.426;7.664;2022-12-18T15:16:59;996.92;;;-3.57;100.00
29815;BME280;16708;50.426;7.664;2022-12-18T15:21:53;996.98;;;-3.76;100.00
29815;BME280;16708;50.426;7.664;2022-12-18T15:31:39;996.83;;;-4.17;100.00
29815;BME280;16708;50.426;7.664;2022-12-18T15:36:32;996.83;;;-4.02;100.00
29815;BME280;16708;50.426;7.664;2022-12-18T15:41:26;996.74;;;-4.05;100.00
29815;BME280;16708;50.426;7.664;2022-12-18T15:46:20;996.86;;;-4.05;100.00
29815;BME280;16708;50.426;7.664;2022-12-18T15:51:14;996.90;;;-3.70;100.00
29815;BME280;16708;50.426;7.664;2022-12-18T15:56:06;996.99;;;-3.75;100.00
29815;BME280;16708;50.426;7.664;2022-12-18T16:01:00;996.97;;;-3.92;100.00
29815;BME280;16708;50.426;7.664;2022-12-18T16:05:54;997.01;;;-4.05;100.00
29815;BME280;16708;50.426;7.664;2022-12-18T16:10:48;996.98;;;-4.11;100.00
29815;BME280;16708;50.426;7.664;2022-12-18T16:15:42;997.08;;;-4.14;100.00
29815;BME280;16708;50.426;7.664;2022-12-18T16:20:35;997.07;;;-4.07;100.00
29815;BME280;16708;50.426;7.664;2022-12-18T16:25:29;997.14;;;-3.94;100.00
29815;BME280;16708;50.426;7.664;2022-12-18T16:30:25;997.05;;;-3.87;100.00
29815;BME280;16708;50.426;7.664;2022-12-18T16:35:18;997.02;;;-3.90;100.00
29815;BME280;16708;50.426;7.664;2022-12-18T16:40:12;996.92;;;-4.00;100.00
29815;BME280;16708;50.426;7.664;2022-12-18T16:45:05;996.75;;;-4.14;100.00
29815;BME280;16708;50.426;7.664;2022-12-18T16:49:59;996.69;;;-4.21;100.00
29815;BME280;16708;50.426;7.664;2022-12-18T16:54:53;996.66;;;-4.17;100.00
29815;BME280;16708;50.426;7.664;2022-12-18T16:59:47;996.76;;;-4.18;100.00
29815;BME280;16708;50.426;7.664;2022-12-18T17:04:41;996.77;;;-4.07;100.00
29815;BME280;16708;50.426;7.664;2022-12-18T17:09:36;996.77;;;-4.05;100.00
29815;BME280;16708;50.426;7.664;2022-12-18T17:14:29;996.80;;;-3.82;100.00
29815;BME280;16708;50.426;7.664;2022-12-18T17:19:23;996.77;;;-4.04;100.00
29815;BME280;16708;50.426;7.664;2022-12-18T17:24:17;996.74;;;-4.05;100.00
29815;BME280;16708;50.426;7.664;2022-12-18T17:29:10;996.89;;;-4.22;100.00
29815;BME280;16708;50.426;7.664;2022-12-18T17:34:04;996.85;;;-4.22;100.00
29815;BME280;16708;50.426;7.664;2022-12-18T17:38:56;996.82;;;-4.19;100.00
29815;BME280;16708;50.426;7.664;2022-12-18T17:43:51;996.91;;;-4.18;100.00
29815;BME280;16708;50.426;7.664;2022-12-18T17:48:44;996.91;;;-4.03;100.00
29815;BME280;16708;50.426;7.664;2022-12-18T17:53:38;996.87;;;-4.02;100.00
29815;BME280;16708;50.426;7.664;2022-12-18T17:58:32;996.88;;;-4.02;100.00
29815;BME280;16708;50.426;7.664;2022-12-18T18:03:26;996.85;;;-4.07;100.00
29815;BME280;16708;50.426;7.664;2022-12-18T18:08:20;996.67;;;-3.93;100.00
29815;BME280;16708;50.426;7.664;2022-12-18T18:13:14;996.70;;;-3.96;100.00
29815;BME280;16708;50.426;7.664;2022-12-18T18:18:08;996.55;;;-3.96;100.00
29815;BME280;16708;50.426;7.664;2022-12-18T18:23:03;996.48;;;-3.86;100.00
29815;BME280;16708;50.426;7.664;2022-12-18T18:27:57;996.52;;;-3.78;100.00
29815;BME280;16708;50.426;7.664;2022-12-18T18:32:50;996.40;;;-3.73;100.00
29815;BME280;16708;50.426;7.664;2022-12-18T18:37:42;996.20;;;-3.54;100.00
29815;BME280;16708;50.426;7.664;2022-12-18T18:42:37;996.16;;;-3.58;100.00
29815;BME280;16708;50.426;7.664;2022-12-18T18:47:29;996.02;;;-3.36;100.00
29815;BME280;16708;50.426;7.664;2022-12-18T18:52:24;995.98;;;-3.37;100.00
29815;BME280;16708;50.426;7.664;2022-12-18T18:57:18;995.96;;;-2.96;100.00
29815;BME280;16708;50.426;7.664;2022-12-18T19:02:12;996.14;;;-2.97;100.00
29815;BME280;16708;50.426;7.664;2022-12-18T19:07:07;996.13;;;-3.17;100.00
29815;BME280;16708;50.426;7.664;2022-12-18T19:12:01;996.14;;;-3.21;100.00
29815;BME280;16708;50.426;7.664;2022-12-18T19:16:55;996.08;;;-3.23;100.00
29815;BME280;16708;50.426;7.664;2022-12-18T19:21:47;996.01;;;-3.18;100.00
29815;BME280;16708;50.426;7.664;2022-12-18T19:26:40;995.88;;;-3.16;100.00
29815;BME280;16708;50.426;7.664;2022-12-18T19:31:35;995.94;;;-3.03;100.00
29815;BME280;16708;50.426;7.664;2022-12-18T19:36:29;995.88;;;-2.95;100.00
29815;BME280;16708;50.426;7.664;2022-12-18T19:41:23;995.91;;;-3.02;100.00
29815;BME280;16708;50.426;7.664;2022-12-18T19:46:17;995.95;;;-2.87;100.00
29815;BME280;16708;50.426;7.664;2022-12-18T19:51:11;995.96;;;-2.76;100.00
29815;BME280;16708;50.426;7.664;2022-12-18T19:56:04;996.08;;;-2.64;100.00
29815;BME280;16708;50.426;7.664;2022-12-18T20:00:58;996.03;;;-2.82;100.00
29815;BME280;16708;50.426;7.664;2022-12-18T20:05:52;996.12;;;-2.77;100.00
29815;BME280;16708;50.426;7.664;2022-12-18T20:10:46;996.11;;;-2.73;100.00
29815;BME280;16708;50.426;7.664;2022-12-18T20:15:39;996.09;;;-2.64;100.00
29815;BME280;16708;50.426;7.664;2022-12-18T20:20:34;995.77;;;-2.60;100.00
29815;BME280;16708;50.426;7.664;2022-12-18T20:25:28;995.64;;;-2.51;100.00
29815;BME280;16708;50.426;7.664;2022-12-18T20:30:23;995.58;;;-2.48;100.00
29815;BME280;16708;50.426;7.664;2022-12-18T20:35:17;995.61;;;-2.44;100.00
29815;BME280;16708;50.426;7.664;2022-12-18T20:40:11;995.80;;;-2.29;100.00
29815;BME280;16708;50.426;7.664;2022-12-18T20:45:05;995.75;;;-2.18;100.00
29815;BME280;16708;50.426;7.664;2022-12-18T20:50:00;995.92;;;-2.05;100.00
29815;BME280;16708;50.426;7.664;2022-12-18T20:54:54;995.80;;;-2.08;100.00
29815;BME280;16708;50.426;7.664;2022-12-18T20:59:45;995.84;;;-2.25;100.00
29815;BME280;16708;50.426;7.664;2022-12-18T21:04:40;995.96;;;-2.26;100.00
29815;BME280;16708;50.426;7.664;2022-12-18T21:09:34;995.93;;;-2.28;100.00
29815;BME280;16708;50.426;7.664;2022-12-18T21:14:28;995.88;;;-2.09;100.00
29815;BME280;16708;50.426;7.664;2022-12-18T21:19:23;995.81;;;-1.97;100.00
29815;BME280;16708;50.426;7.664;2022-12-18T21:24:14;995.88;;;-1.51;100.00
29815;BME280;16708;50.426;7.664;2022-12-18T21:29:09;995.82;;;-1.81;100.00
29815;BME280;16708;50.426;7.664;2022-12-18T21:34:03;995.83;;;-1.76;100.00
29815;BME280;16708;50.426;7.664;2022-12-18T21:38:57;995.71;;;-1.74;100.00
29815;BME280;16708;50.426;7.664;2022-12-18T21:43:54;995.82;;;-1.59;100.00
29815;BME280;16708;50.426;7.664;2022-12-18T21:48:44;995.71;;;-1.53;100.00
29815;BME280;16708;50.426;7.664;2022-12-18T21:53:38;995.71;;;-1.40;100.00
29815;BME280;16708;50.426;7.664;2022-12-18T21:58:33;995.74;;;-1.35;100.00
29815;BME280;16708;50.426;7.664;2022-12-18T22:03:27;995.81;;;-1.34;100.00
29815;BME280;16708;50.426;7.664;2022-12-18T22:08:21;995.82;;;-1.41;100.00
29815;BME280;16708;50.426;7.664;2022-12-18T22:13:14;995.72;;;-1.41;100.00
29815;BME280;16708;50.426;7.664;2022-12-18T22:18:09;995.63;;;-1.31;100.00
29815;BME280;16708;50.426;7.664;2022-12-18T22:23:03;995.63;;;-1.31;100.00
29815;BME280;16708;50.426;7.664;2022-12-18T22:27:57;995.59;;;-1.18;100.00
29815;BME280;16708;50.426;7.664;2022-12-18T22:32:51;995.43;;;-1.18;100.00
29815;BME280;16708;50.426;7.664;2022-12-18T22:37:46;995.37;;;-1.09;100.00
29815;BME280;16708;50.426;7.664;2022-12-18T22:42:40;995.38;;;-1.06;100.00
29815;BME280;16708;50.426;7.664;2022-12-18T22:47:33;995.42;;;-0.98;100.00
29815;BME280;16708;50.426;7.664;2022-12-18T22:52:27;995.33;;;-0.96;100.00
29815;BME280;16708;50.426;7.664;2022-12-18T22:57:22;995.18;;;-1.01;100.00
29815;BME280;16708;50.426;7.664;2022-12-18T23:02:16;995.07;;;-0.94;100.00
29815;BME280;16708;50.426;7.664;2022-12-18T23:07:10;995.13;;;-0.89;100.00
29815;BME280;16708;50.426;7.664;2022-12-18T23:12:04;995.16;;;-0.81;100.00
29815;BME280;16708;50.426;7.664;2022-12-18T23:16:58;995.08;;;-0.86;100.00
29815;BME280;16708;50.426;7.664;2022-12-18T23:21:52;994.99;;;-0.96;100.00
29815;BME280;16708;50.426;7.664;2022-12-18T23:26:46;995.03;;;-0.97;100.00
29815;BME280;16708;50.426;7.664;2022-12-18T23:31:41;995.08;;;-1.05;100.00
29815;BME280;16708;50.426;7.664;2022-12-18T23:36:35;994.93;;;-0.95;100.00
29815;BME280;16708;50.426;7.664;2022-12-18T23:41:30;995.05;;;-0.97;100.00
29815;BME280;16708;50.426;7.664;2022-12-18T23:46:22;995.04;;;-0.87;100.00
29815;BME280;16708;50.426;7.664;2022-12-18T23:51:16;995.04;;;-1.00;100.00
29815;BME280;16708;50.426;7.664;2022-12-18T23:56:11;994.91;;;-0.96;100.00
